Meteo Giornale » Osservazioni meteo Egitto » Cairo

ore: 03:30 - Osservazioni Meteo Cairo
Lat. 30° 8' N Lon. 31° 24' E Alt. 64 metri s.l.m.

sereno Africa/Cairo

22 °C

Sereno

Temp. 24 Ore

22 °C

35 °C

Nord/Nord-Est

25.9 Km/h

Dew point 19 °C

Umidità 83 %

Visibilità  10 Km

Il sole sorge alle ore 04:52

Il sole tramonta alle ore 18:51

Data e Ora Cielo e Fenomeni T °C DP °C Um. % Pres. hPa Vis. km Vento km/h
Oggi h: 03:30 sereno Sereno 22 19 83 1011 10 N/NE 25.9
Oggi h: 03:00 sereno Sereno 22 19 83 1011 10 N/NE 25.9
Oggi h: 02:30 sereno Sereno 22 19 83 1011 10 N/NE 25.9
Oggi h: 02:00 sereno Sereno 23 19 78 1012 10 N/NE 25.9
Oggi h: 01:30 sereno Sereno 23 19 78 1012 10 N/NE 27.8
Oggi h: 01:00 sereno Sereno 23 19 78 1012 10 N/NE 27.8
Oggi h: 00:30 sereno Sereno 23 19 78 1012 10 N/NE 29.6
Oggi h: 00:00 sereno Sereno 23 19 78 1012 10 N/NE 29.6
Ieri h: 23:30 sereno Sereno 24 19 73 1012 10 N/NE 24
Ieri h: 23:00 sereno Sereno 24 19 73 1012 10 N/NE 24
Ieri h: 22:30 sereno Sereno 24 19 73 1012 10 N/NE 20.3
Ieri h: 22:00 sereno Sereno 25 19 69 1012 10 NE 25.9
Ieri h: 21:30 sereno Sereno 26 18 61 1012 10 NE 27.8
Ieri h: 21:00 sereno Sereno 26 18 61 1012 10 N/NE 24
Ieri h: 20:30 sereno Sereno 27 18 57 1012 10 N/NE 25.9
Ieri h: 20:00 sereno Sereno 28 16 48 1011 10 N/NE 33.3
Ieri h: 19:30 sereno Sereno 28 16 48 1011 10 NE 27.8
Ieri h: 19:00 sereno Sereno 31 18 45 1010 10 N/NE 27.8
Ieri h: 18:30 sereno Sereno 32 14 33 1010 10 N 20.3
Ieri h: 18:00 sereno Sereno 33 11 26 1010 10 N 20.3
Ieri h: 17:00 sereno Sereno 34 9 21 1010 10 NO 22.2
Ieri h: 16:30 sereno Sereno 34 9 21 1010 10 N/NO 14.8
Ieri h: 16:00 sereno Sereno 35 8 19 1010 10 NO 16.7
Ieri h: 15:30 sereno Sereno 35 8 19 1010 10 NO 14.8
Ieri h: 15:00 sereno Sereno 35 8 19 1010 10 O/NO 16.7
Ieri h: 14:30 sereno Sereno 35 7 17 1010 10 O/NO 22.2
Ieri h: 14:00 sereno Sereno 35 6 16 1010 10 O/NO 9.3
Ieri h: 13:30 sereno Sereno 34 6 17 1011 10 O 11.1
Ieri h: 13:00 sereno Sereno 35 6 16 1011 10 N 14.8
Ieri h: 12:30 sereno Sereno 34 6 17 1011 10 N 11.1
Ieri h: 12:00 sereno Sereno 34 6 17 1011 10 N/NO 13
Ieri h: 11:00 sereno Sereno 32 6 19 1011 10 E/NE 9.3
Ieri h: 10:30 sereno Sereno 31 6 20 1012 10 NE 16.7
Ieri h: 10:00 sereno Sereno 31 6 20 1012 10 NE 16.7
Ieri h: 09:30 sereno Sereno 30 5 20 1012 10 E/NE 16.7
Ieri h: 09:00 sereno Sereno 30 5 20 1012 10 E/NE 16.7
Ieri h: 08:30 sereno Sereno 27 12 39 1012 10 NE 13
Ieri h: 08:00 sereno Sereno 27 12 39 1012 10 NE 13
Ieri h: 07:30 sereno Sereno 25 14 50 1012 10 NE 13
Ieri h: 07:00 sereno Sereno 25 14 50 1012 10 NE 13
Ieri h: 06:30 sereno Sereno 23 17 68 1012 10 N/NE 9.3
Ieri h: 06:00 sereno Sereno 23 17 68 1012 10 N/NE 9.3
Ieri h: 05:30 sereno Sereno 22 18 78 1011 10 NE 14.8
Ieri h: 05:00 sereno Sereno 22 18 78 1011 10 NE 14.8
Ieri h: 04:30 sereno Sereno 22 18 78 1011 10 N/NE 13
Ieri h: 04:00 sereno Sereno 23 19 78 1011 10 NE 13